Time;durP1;ratioP1;P1;durP2;ratioP2;P2;SDS_P1;SDS_P2;PMS_P1;PMS_P2;Temp;Humidity;BMP_temperature;BMP_pressure;BME280_temperature;BME280_humidity;BME280_pressure;Samples;Min_cycle;Max_cycle;Signal;HPM_P1;HPM_P2
2021/12/24 00:02:08;;;;;;;116.45;32.05;;;5.60;99.90;;;;;;4973489;28;20054;-87
2021/12/24 00:04:34;;;;;;;126.55;33.55;;;5.60;99.90;;;;;;4957841;28;20055;-87
2021/12/24 00:07:00;;;;;;;122.38;36.97;;;6.40;99.90;;;;;;4974123;28;20116;-87
2021/12/24 00:09:31;;;;;;;135.60;36.38;;;5.60;99.90;;;;;;4973296;28;20046;-87
2021/12/24 00:12:00;;;;;;;160.50;36.75;;;6.20;99.90;;;;;;4973066;28;20047;-88
2021/12/24 00:14:55;;;;;;;120.22;35.75;;;5.70;99.90;;;;;;4972962;28;20063;-87
2021/12/24 00:17:27;;;;;;;125.25;33.08;;;6.40;99.90;;;;;;4973887;28;20144;-87
2021/12/24 00:36:31;;;;;;;129.30;33.35;;;5.90;99.90;;;;;;4936259;29;20956;-89
2021/12/24 00:38:57;;;;;;;141.20;37.05;;;6.50;99.90;;;;;;4952419;29;20134;-88
2021/12/24 00:41:23;;;;;;;148.77;36.13;;;6.60;99.90;;;;;;4945582;28;20054;-89
2021/12/24 00:43:48;;;;;;;130.30;34.40;;;5.00;99.90;;;;;;4972699;28;20090;-88
2021/12/24 00:46:14;;;;;;;129.65;35.15;;;6.00;99.90;;;;;;4956790;28;20050;-88
2021/12/24 00:48:40;;;;;;;155.07;34.17;;;5.70;99.90;;;;;;4958062;28;20066;-88
2021/12/24 00:56:13;;;;;;;107.85;31.70;;;6.40;99.90;;;;;;4973513;28;20137;-89
2021/12/24 00:58:40;;;;;;;137.35;32.70;;;6.10;99.90;;;;;;4957942;28;20050;-89
2021/12/24 01:01:08;;;;;;;119.03;30.88;;;6.10;99.90;;;;;;4957281;28;20066;-88
2021/12/24 01:03:34;;;;;;;128.70;31.98;;;7.00;99.90;;;;;;4957064;28;20097;-88
2021/12/24 01:06:00;;;;;;;99.65;27.25;;;6.10;99.90;;;;;;4957014;28;20509;-88
2021/12/24 01:08:26;;;;;;;112.57;29.02;;;6.10;99.90;;;;;;4972152;28;20050;-89
2021/12/24 01:10:58;;;;;;;105.05;26.38;;;5.90;99.90;;;;;;4972941;28;20047;-90
2021/12/24 01:13:28;;;;;;;80.82;23.95;;;7.00;99.90;;;;;;4956793;28;20101;-88
2021/12/24 01:21:30;;;;;;;88.07;23.98;;;6.70;99.90;;;;;;4975838;28;20055;-89
2021/12/24 01:24:01;;;;;;;97.22;26.23;;;6.30;99.90;;;;;;4976121;28;20062;-89
2021/12/24 01:26:43;;;;;;;90.72;24.65;;;6.60;99.90;;;;;;4958147;28;20375;-89
2021/12/24 01:45:16;;;;;;;74.03;21.45;;;6.70;99.90;;;;;;4972337;28;20568;-88
2021/12/24 01:47:42;;;;;;;74.45;20.75;;;6.50;99.90;;;;;;4956771;28;20526;-89
2021/12/24 01:50:08;;;;;;;42.88;14.70;;;7.20;99.90;;;;;;4973399;28;20138;-89
2021/12/24 01:52:34;;;;;;;58.95;17.90;;;6.60;99.90;;;;;;4973525;28;20055;-86
2021/12/24 01:55:00;;;;;;;57.17;16.73;;;7.00;99.90;;;;;;4958060;28;20528;-86
2021/12/24 01:57:26;;;;;;;53.25;16.55;;;6.60;99.90;;;;;;4959592;28;20057;-86
2021/12/24 01:59:52;;;;;;;57.78;16.13;;;6.50;99.90;;;;;;4975383;28;20090;-87
2021/12/24 02:02:21;;;;;;;46.88;15.25;;;7.10;99.90;;;;;;4993833;28;20135;-89
2021/12/24 02:04:46;;;;;;;54.35;16.20;;;6.60;99.90;;;;;;4994340;28;20042;-89
2021/12/24 02:07:12;;;;;;;57.55;15.88;;;6.70;99.90;;;;;;4981406;28;20055;-88
2021/12/24 02:09:38;;;;;;;59.50;17.73;;;7.30;99.90;;;;;;4974466;28;20135;-87
2021/12/24 02:12:09;;;;;;;59.47;16.98;;;6.80;99.90;;;;;;4974065;28;20122;-87
2021/12/24 02:14:37;;;;;;;51.35;16.65;;;6.80;99.90;;;;;;4956556;28;20054;-87
2021/12/24 02:28:22;;;;;;;55.72;15.10;;;7.30;99.90;;;;;;4973054;28;20437;-87
2021/12/24 02:30:48;;;;;;;64.20;17.13;;;7.40;99.90;;;;;;4972254;28;20055;-86
2021/12/24 02:33:14;;;;;;;;;;;6.60;99.90;;;;;;4956297;28;20058;-86
2021/12/24 02:35:40;;;;;;;50.17;15.48;;;7.50;99.90;;;;;;4955200;28;19929;-86
2021/12/24 02:38:07;;;;;;;46.83;14.73;;;6.90;99.90;;;;;;4971414;28;20062;-87
2021/12/24 02:40:34;;;;;;;55.22;16.02;;;7.30;99.90;;;;;;4955716;28;20050;-86
2021/12/24 02:43:01;;;;;;;55.40;16.27;;;7.30;99.90;;;;;;4955420;28;20121;-86
2021/12/24 02:45:29;;;;;;;56.00;15.75;;;7.90;99.90;;;;;;4971301;28;20047;-86
2021/12/24 02:55:32;;;;;;;29.48;10.57;;;7.10;99.90;;;;;;4972706;28;20110;-87
2021/12/24 02:57:58;;;;;;;34.67;11.38;;;7.10;99.90;;;;;;4955877;28;20125;-87
2021/12/24 03:00:26;;;;;;;42.42;13.63;;;6.50;99.90;;;;;;4955688;28;20061;-87
2021/12/24 03:02:53;;;;;;;35.00;12.32;;;7.80;99.90;;;;;;4955690;28;20448;-87
2021/12/24 03:05:21;;;;;;;35.45;12.00;;;6.90;99.90;;;;;;4970990;28;20104;-86
2021/12/24 03:07:48;;;;;;;33.17;11.85;;;7.10;99.90;;;;;;4971280;28;20059;-86
2021/12/24 03:10:17;;;;;;;33.72;12.70;;;7.70;99.90;;;;;;4954647;28;20046;-86
2021/12/24 03:12:45;;;;;;;36.88;13.57;;;7.50;99.90;;;;;;4970043;28;20096;-87
2021/12/24 03:15:14;;;;;;;33.95;12.48;;;7.00;99.90;;;;;;4969990;28;20509;-86
2021/12/24 03:17:46;;;;;;;29.40;11.55;;;7.70;99.90;;;;;;4970416;28;20556;-87
2021/12/24 03:20:12;;;;;;;29.27;12.00;;;7.70;99.90;;;;;;4969762;28;20608;-86
2021/12/24 03:25:37;;;;;;;31.80;12.55;;;7.30;99.90;;;;;;4948514;28;20054;-86
2021/12/24 03:28:03;;;;;;;39.95;13.57;;;7.40;99.90;;;;;;4954197;28;20189;-87
2021/12/24 03:30:29;;;;;;;36.15;12.82;;;7.30;99.90;;;;;;4954521;28;20160;-86
2021/12/24 03:32:55;;;;;;;;;;;7.30;99.90;;;;;;4954994;28;20160;-87
2021/12/24 03:35:21;;;;;;;46.83;12.48;;;7.50;99.90;;;;;;4954106;28;19945;-87
2021/12/24 03:37:48;;;;;;;49.38;13.27;;;7.40;99.90;;;;;;4969606;28;20058;-86
2021/12/24 03:40:14;;;;;;;61.75;16.17;;;8.10;99.90;;;;;;4954072;28;20055;-87
2021/12/24 03:42:42;;;;;;;59.35;14.85;;;7.70;99.90;;;;;;4954202;28;20145;-87
2021/12/24 03:45:29;;;;;;;73.50;18.05;;;7.50;99.90;;;;;;4970263;28;20055;-86
2021/12/24 03:48:00;;;;;;;56.35;16.10;;;7.60;99.90;;;;;;4953988;28;20077;-86
2021/12/24 03:50:40;;;;;;;77.30;19.50;;;8.20;99.90;;;;;;4953915;28;20133;-86
2021/12/24 03:55:57;;;;;;;103.38;22.40;;;8.10;99.90;;;;;;4971444;28;20046;-86
2021/12/24 03:58:22;;;;;;;68.60;20.70;;;6.90;99.90;;;;;;4953915;28;20061;-86
2021/12/24 04:00:48;;;;;;;90.43;24.80;;;7.80;99.90;;;;;;4953864;28;20054;-86
2021/12/24 04:03:14;;;;;;;;;;;8.40;99.90;;;;;;4970580;28;20050;-87
2021/12/24 04:05:40;;;;;;;80.30;21.40;;;7.90;99.90;;;;;;4970900;28;19933;-86
2021/12/24 04:08:06;;;;;;;88.80;24.77;;;8.40;99.90;;;;;;4953577;28;20074;-86
2021/12/24 04:13:00;;;;;;;115.07;27.52;;;8.10;99.90;;;;;;4970529;28;20065;-87
2021/12/24 04:15:26;;;;;;;102.57;27.13;;;8.90;99.90;;;;;;4954065;28;20059;-86
2021/12/24 04:17:51;;;;;;;84.38;22.60;;;8.60;99.90;;;;;;4953917;28;20517;-87
2021/12/24 04:25:47;;;;;;;87.90;22.92;;;8.90;99.90;;;;;;4970937;28;20105;-87
2021/12/24 04:28:13;;;;;;;87.75;22.73;;;7.50;99.90;;;;;;4972174;28;20082;-88
2021/12/24 04:30:45;;;;;;;80.05;19.75;;;8.30;99.90;;;;;;4956291;28;21033;-87
2021/12/24 04:33:19;;;;;;;86.38;23.55;;;8.60;99.90;;;;;;4956261;28;20110;-87
2021/12/24 04:35:56;;;;;;;75.45;22.08;;;8.70;99.90;;;;;;4956490;28;20059;-88
2021/12/24 04:51:52;;;;;;;84.85;27.73;;;8.50;99.90;;;;;;4971777;28;20113;-87
2021/12/24 05:10:15;;;;;;;65.82;22.42;;;8.50;99.90;;;;;;4971210;28;20855;-87
2021/12/24 05:12:41;;;;;;;61.40;23.33;;;8.70;99.90;;;;;;4955312;28;20050;-87
2021/12/24 05:15:09;;;;;;;55.65;19.15;;;8.50;99.90;;;;;;4955485;28;20195;-88
2021/12/24 05:18:08;;;;;;;54.78;21.58;;;8.50;99.90;;;;;;4955155;28;20043;-87
2021/12/24 05:23:18;;;;;;;62.63;22.52;;;8.00;99.90;;;;;;4971477;28;20069;-87
2021/12/24 05:25:46;;;;;;;61.05;21.73;;;9.10;99.90;;;;;;4971367;28;20050;-87
2021/12/24 05:28:13;;;;;;;73.75;25.38;;;8.50;99.90;;;;;;4955397;28;20055;-87
2021/12/24 05:30:40;;;;;;;83.05;25.45;;;8.80;99.90;;;;;;4972403;28;20474;-87
2021/12/24 05:33:06;;;;;;;58.78;21.75;;;8.40;99.90;;;;;;4955081;28;20060;-87
2021/12/24 05:35:32;;;;;;;82.15;27.85;;;8.20;99.90;;;;;;4971328;28;20141;-88
2021/12/24 05:37:58;;;;;;;84.57;30.50;;;8.60;99.90;;;;;;4970912;28;20650;-87
2021/12/24 05:40:24;;;;;;;81.63;28.40;;;8.70;99.90;;;;;;4970737;28;20078;-88
2021/12/24 05:42:49;;;;;;;71.63;27.65;;;8.50;99.90;;;;;;4954006;28;20081;-87
2021/12/24 05:45:15;;;;;;;74.35;27.25;;;9.00;99.90;;;;;;4954478;28;20418;-87
2021/12/24 05:47:41;;;;;;;86.43;30.92;;;8.50;99.90;;;;;;4971945;28;20493;-88
2021/12/24 05:50:07;;;;;;;64.82;25.63;;;8.00;99.90;;;;;;4954426;28;20047;-87
2021/12/24 05:52:33;;;;;;;69.35;25.48;;;8.50;99.90;;;;;;4953911;28;20086;-87
2021/12/24 05:55:00;;;;;;;66.60;25.48;;;9.50;99.90;;;;;;4971022;28;20059;-88
2021/12/24 05:57:27;;;;;;;81.10;28.65;;;9.10;99.90;;;;;;4971950;28;20058;-87
2021/12/24 05:59:53;;;;;;;78.47;27.23;;;9.20;99.90;;;;;;4972415;28;20145;-88
2021/12/24 06:02:19;;;;;;;87.20;28.73;;;9.40;99.90;;;;;;4970678;28;20449;-88
2021/12/24 06:04:45;;;;;;;;;;;8.20;99.90;;;;;;4955096;28;20409;-88
2021/12/24 06:07:10;;;;;;;79.60;26.77;;;7.60;99.90;;;;;;4970395;28;19926;-88
2021/12/24 06:09:37;;;;;;;83.55;26.52;;;8.50;99.90;;;;;;4953831;28;20047;-88
2021/12/24 06:12:02;;;;;;;;;;;8.40;99.90;;;;;;4955254;28;20055;-88
2021/12/24 06:14:28;;;;;;;65.07;24.38;;;8.40;99.90;;;;;;4954301;28;19926;-88
2021/12/24 06:17:05;;;;;;;53.28;19.95;;;8.60;99.90;;;;;;4971487;28;20043;-88
2021/12/24 06:19:30;;;;;;;;;;;8.60;99.90;;;;;;4954564;28;20081;-88
2021/12/24 06:21:57;;;;;;;65.32;21.55;;;8.50;99.90;;;;;;4970005;28;20384;-87
2021/12/24 06:24:24;;;;;;;57.05;22.38;;;8.40;99.90;;;;;;4969808;28;20063;-86
2021/12/24 06:26:50;;;;;;;53.63;21.25;;;8.20;99.90;;;;;;4954322;28;20516;-87
2021/12/24 06:29:17;;;;;;;58.80;22.77;;;8.70;99.90;;;;;;4970579;28;20413;-88
2021/12/24 06:31:43;;;;;;;42.63;20.05;;;8.60;99.90;;;;;;4969556;28;20583;-88
2021/12/24 06:34:10;;;;;;;54.88;20.52;;;8.50;99.90;;;;;;4953174;28;20047;-88
2021/12/24 06:36:40;;;;;;;57.83;22.85;;;8.80;99.90;;;;;;4953325;28;20061;-87
2021/12/24 06:39:07;;;;;;;55.85;19.27;;;9.30;99.90;;;;;;4969376;28;20081;-87
2021/12/24 06:41:33;;;;;;;56.75;19.58;;;9.30;99.90;;;;;;4952682;28;20059;-88
2021/12/24 06:44:00;;;;;;;56.10;19.52;;;8.40;99.90;;;;;;4968477;28;20039;-88
2021/12/24 06:46:26;;;;;;;52.30;18.15;;;8.10;99.90;;;;;;4968797;28;20125;-87
2021/12/24 06:48:56;;;;;;;55.28;18.45;;;9.30;99.90;;;;;;4952412;28;20134;-88
2021/12/24 06:51:25;;;;;;;49.60;18.83;;;9.10;99.90;;;;;;4968453;28;20047;-88
2021/12/24 06:53:50;;;;;;;49.88;17.55;;;8.20;99.90;;;;;;4968701;28;20424;-89
2021/12/24 06:56:16;;;;;;;56.00;17.30;;;8.00;99.90;;;;;;4968507;28;20046;-89
2021/12/24 06:58:42;;;;;;;26.67;10.82;;;8.90;99.90;;;;;;4952399;28;20070;-88
2021/12/24 07:01:08;;;;;;;49.92;16.88;;;8.10;99.90;;;;;;4968856;28;20046;-87
2021/12/24 07:03:34;;;;;;;48.50;17.40;;;8.30;99.90;;;;;;4968494;28;20042;-88
2021/12/24 07:05:59;;;;;;;52.70;16.92;;;8.00;99.90;;;;;;4952281;28;20055;-88
2021/12/24 07:08:25;;;;;;;36.58;16.63;;;8.30;99.90;;;;;;4952333;28;20508;-87
2021/12/24 07:10:52;;;;;;;52.47;17.20;;;8.30;99.90;;;;;;4952546;28;20130;-87
2021/12/24 07:13:18;;;;;;;49.05;17.45;;;8.60;99.90;;;;;;4968495;28;20424;-88
2021/12/24 07:15:43;;;;;;;41.28;14.85;;;8.70;99.90;;;;;;4969696;28;20118;-88
2021/12/24 07:18:09;;;;;;;42.75;14.93;;;8.00;99.90;;;;;;4969638;28;20426;-87
2021/12/24 07:20:35;;;;;;;41.80;14.65;;;8.10;99.90;;;;;;4984701;28;20089;-88
2021/12/24 07:23:01;;;;;;;38.78;14.43;;;8.50;99.90;;;;;;4968356;28;20145;-88
2021/12/24 07:25:27;;;;;;;38.95;15.32;;;9.20;99.90;;;;;;4969874;28;20047;-88
2021/12/24 07:27:52;;;;;;;48.58;18.20;;;8.00;99.90;;;;;;4968075;28;20105;-89
2021/12/24 07:30:20;;;;;;;42.78;14.45;;;8.70;99.90;;;;;;4967913;28;20086;-88
2021/12/24 07:32:46;;;;;;;26.27;11.98;;;8.20;99.90;;;;;;4969493;28;20447;-88
2021/12/24 07:35:12;;;;;;;45.30;14.65;;;8.10;99.90;;;;;;4952674;28;20082;-87
2021/12/24 07:37:38;;;;;;;39.00;12.93;;;8.70;99.90;;;;;;4953356;28;20465;-87
2021/12/24 07:40:05;;;;;;;40.83;13.07;;;7.90;99.90;;;;;;4970008;28;20046;-87
2021/12/24 07:42:55;;;;;;;39.40;12.77;;;8.10;99.90;;;;;;4970812;28;20134;-88
2021/12/24 07:45:21;;;;;;;37.63;12.82;;;7.20;99.90;;;;;;4979889;28;20046;-89
2021/12/24 07:48:05;;;;;;;37.20;12.90;;;7.70;99.90;;;;;;4992737;28;20035;-89
2021/12/24 07:52:56;;;;;;;43.88;13.05;;;8.10;99.90;;;;;;4986107;28;20133;-89
2021/12/24 07:55:22;;;;;;;40.35;12.57;;;8.10;99.90;;;;;;4958130;28;20049;-88
2021/12/24 07:57:51;;;;;;;30.83;12.07;;;7.60;99.90;;;;;;4956055;28;20055;-88
2021/12/24 08:00:18;;;;;;;52.40;14.50;;;8.80;99.90;;;;;;4972297;28;20059;-89
2021/12/24 08:02:44;;;;;;;47.78;13.65;;;8.10;99.90;;;;;;4970473;28;20043;-88
2021/12/24 08:05:14;;;;;;;37.40;11.40;;;8.00;99.90;;;;;;4964381;28;20047;-87
2021/12/24 08:07:39;;;;;;;33.80;12.80;;;8.10;99.90;;;;;;4958048;28;20158;-88
2021/12/24 08:10:08;;;;;;;36.00;12.75;;;7.80;99.90;;;;;;4955531;28;20141;-88
2021/12/24 08:12:34;;;;;;;30.38;9.60;;;8.10;99.90;;;;;;4972332;28;20053;-87
2021/12/24 08:15:00;;;;;;;45.25;12.82;;;7.40;99.90;;;;;;4955983;28;20137;-89
2021/12/24 08:17:25;;;;;;;35.03;12.35;;;8.50;99.90;;;;;;4955822;28;20105;-88
2021/12/24 08:19:51;;;;;;;26.67;9.52;;;7.80;99.90;;;;;;4955213;28;20050;-87
2021/12/24 08:22:17;;;;;;;35.63;11.07;;;7.70;99.90;;;;;;4955465;28;20512;-88
2021/12/24 08:24:43;;;;;;;29.13;9.13;;;7.80;99.90;;;;;;4955570;28;20093;-88
2021/12/24 08:27:09;;;;;;;23.98;10.05;;;7.80;99.90;;;;;;4955672;28;20057;-88
2021/12/24 08:29:35;;;;;;;22.08;8.70;;;8.00;99.90;;;;;;4971561;28;20093;-88
2021/12/24 08:32:03;;;;;;;27.45;8.70;;;7.80;99.90;;;;;;4955678;28;20122;-88
2021/12/24 08:34:30;;;;;;;23.40;10.00;;;8.00;99.90;;;;;;4954355;28;20051;-88
2021/12/24 08:36:56;;;;;;;24.33;9.73;;;7.70;99.90;;;;;;4954636;28;20065;-88
2021/12/24 08:39:22;;;;;;;31.65;9.52;;;8.60;99.90;;;;;;4955048;28;20050;-88
2021/12/24 08:41:52;;;;;;;27.02;9.40;;;9.20;99.90;;;;;;4955114;28;20073;-88
2021/12/24 08:44:18;;;;;;;26.40;9.52;;;8.50;99.90;;;;;;4970399;28;20051;-89
2021/12/24 08:46:44;;;;;;;31.75;9.70;;;7.70;99.90;;;;;;4954313;28;20054;-88
2021/12/24 08:49:10;;;;;;;30.77;10.65;;;8.20;99.90;;;;;;4954652;28;20054;-88
2021/12/24 08:51:36;;;;;;;30.23;10.95;;;7.90;99.90;;;;;;4954064;28;20117;-87
2021/12/24 08:54:02;;;;;;;37.53;10.32;;;7.80;99.90;;;;;;4954882;28;20066;-88
2021/12/24 08:56:28;;;;;;;23.20;9.60;;;7.90;99.90;;;;;;4955287;28;20514;-87
2021/12/24 08:58:54;;;;;;;28.08;8.63;;;8.90;99.90;;;;;;4955072;28;20071;-88
2021/12/24 09:01:20;;;;;;;26.10;10.45;;;8.50;99.90;;;;;;4953979;28;20073;-88
2021/12/24 09:03:45;;;;;;;25.75;9.48;;;8.70;99.90;;;;;;4953609;28;20604;-87
2021/12/24 09:06:14;;;;;;;26.35;9.35;;;8.00;99.90;;;;;;4954430;28;20050;-87
2021/12/24 09:08:44;;;;;;;21.10;8.40;;;8.00;99.90;;;;;;4956973;28;20066;-87
2021/12/24 09:11:11;;;;;;;20.25;7.95;;;8.40;99.90;;;;;;4957576;28;20054;-87
2021/12/24 09:13:37;;;;;;;20.05;8.43;;;7.90;99.90;;;;;;4957109;28;20060;-88
2021/12/24 09:16:05;;;;;;;23.10;8.40;;;7.80;99.90;;;;;;4955906;28;20047;-87
2021/12/24 09:18:36;;;;;;;26.98;8.90;;;7.80;99.90;;;;;;4955297;28;20057;-87
2021/12/24 09:21:03;;;;;;;26.67;9.32;;;7.90;99.90;;;;;;4956557;28;20413;-87
2021/12/24 09:23:29;;;;;;;19.85;8.85;;;7.70;99.90;;;;;;4956168;28;20053;-88
2021/12/24 09:25:58;;;;;;;;;;;8.60;99.90;;;;;;4956118;28;20062;-87
2021/12/24 09:28:24;;;;;;;29.98;9.40;;;8.10;99.90;;;;;;4956676;28;19922;-87
2021/12/24 09:30:50;;;;;;;25.63;8.45;;;8.20;99.90;;;;;;4956054;28;20078;-87
2021/12/24 09:33:16;;;;;;;28.65;9.02;;;7.70;99.90;;;;;;4955702;28;20133;-88
2021/12/24 09:35:42;;;;;;;27.13;10.40;;;7.60;99.90;;;;;;4956498;28;20050;-88
2021/12/24 09:38:09;;;;;;;22.25;9.35;;;8.60;99.90;;;;;;4956416;28;20051;-89
2021/12/24 09:40:35;;;;;;;26.88;11.13;;;8.80;99.90;;;;;;4955995;28;20090;-89
2021/12/24 09:43:10;;;;;;;30.85;10.55;;;8.90;99.90;;;;;;4954959;28;20046;-88
2021/12/24 09:46:11;;;;;;;27.20;10.60;;;8.60;99.90;;;;;;4953215;28;20047;-88
2021/12/24 09:48:50;;;;;;;25.52;9.73;;;8.00;99.90;;;;;;4968729;28;20528;-88
2021/12/24 09:51:16;;;;;;;24.33;9.73;;;8.60;99.90;;;;;;4954659;28;20098;-87
2021/12/24 09:53:42;;;;;;;26.17;9.18;;;7.80;99.90;;;;;;4969608;28;20054;-88
2021/12/24 09:56:08;;;;;;;25.25;8.45;;;8.10;99.90;;;;;;4954588;28;20062;-88
2021/12/24 09:58:34;;;;;;;21.20;8.63;;;8.50;99.90;;;;;;4953061;28;20796;-87
2021/12/24 10:01:00;;;;;;;32.08;10.23;;;8.00;99.90;;;;;;4954024;28;20138;-88
2021/12/24 10:03:41;;;;;;;16.50;8.43;;;8.90;99.90;;;;;;4954173;28;20251;-89
2021/12/24 10:06:07;;;;;;;16.98;6.90;;;8.00;99.90;;;;;;4956102;28;20050;-88
2021/12/24 10:08:47;;;;;;;17.30;8.07;;;8.80;99.90;;;;;;4956363;28;20055;-89
2021/12/24 10:11:23;;;;;;;17.55;7.13;;;8.00;99.90;;;;;;4957527;28;20055;-89
2021/12/24 10:13:56;;;;;;;6.60;3.42;;;8.10;99.90;;;;;;4957811;28;20676;-89
2021/12/24 10:16:22;;;;;;;6.68;2.83;;;7.40;99.90;;;;;;4956918;28;20056;-88
2021/12/24 10:18:54;;;;;;;7.28;3.60;;;6.60;99.90;;;;;;4957449;28;20043;-91
2021/12/24 10:21:26;;;;;;;7.07;3.40;;;7.30;99.90;;;;;;4958904;28;20047;-88
2021/12/24 10:24:01;;;;;;;7.55;4.63;;;6.60;99.90;;;;;;4957745;28;20409;-88
2021/12/24 10:26:38;;;;;;;9.00;4.68;;;6.00;99.90;;;;;;4956420;28;20113;-88
2021/12/24 10:29:14;;;;;;;11.75;5.38;;;6.00;99.90;;;;;;4955429;28;20097;-89
2021/12/24 10:31:43;;;;;;;12.70;5.78;;;6.40;99.90;;;;;;4955437;28;20043;-88
2021/12/24 10:34:21;;;;;;;10.10;5.20;;;4.90;99.90;;;;;;4956059;28;20061;-88
2021/12/24 10:36:54;;;;;;;9.55;5.28;;;5.70;99.90;;;;;;4955439;28;20096;-87
2021/12/24 10:39:25;;;;;;;10.27;5.22;;;6.50;99.90;;;;;;4955054;28;20058;-86
2021/12/24 10:41:52;;;;;;;15.20;6.00;;;5.40;99.90;;;;;;4954409;28;20062;-87
2021/12/24 10:44:21;;;;;;;11.93;5.78;;;5.80;99.90;;;;;;4953975;28;20944;-87
2021/12/24 10:46:58;;;;;;;11.73;5.18;;;5.70;99.90;;;;;;4953434;28;20053;-88
2021/12/24 10:52:14;;;;;;;9.00;4.55;;;5.70;99.90;;;;;;4957041;28;20083;-88
2021/12/24 10:54:55;;;;;;;11.00;5.07;;;5.70;99.90;;;;;;4935615;29;20094;-90
2021/12/24 10:57:27;;;;;;;9.63;5.25;;;5.60;99.90;;;;;;4952318;28;20482;-88
2021/12/24 10:59:56;;;;;;;9.50;4.32;;;5.60;99.90;;;;;;4935756;29;20429;-88
2021/12/24 11:02:30;;;;;;;6.13;3.35;;;5.30;99.90;;;;;;4952015;29;20059;-88
2021/12/24 11:04:56;;;;;;;9.40;4.03;;;5.40;99.90;;;;;;4950787;29;20047;-88
2021/12/24 11:07:41;;;;;;;9.07;4.53;;;5.80;99.90;;;;;;4934453;29;20059;-88
2021/12/24 11:10:14;;;;;;;8.52;3.97;;;6.50;99.90;;;;;;4933077;28;20062;-88
2021/12/24 11:12:54;;;;;;;9.52;4.53;;;5.60;99.90;;;;;;4968251;28;20047;-88
2021/12/24 11:15:27;;;;;;;12.52;4.70;;;5.60;99.90;;;;;;4951174;28;20536;-89
2021/12/24 11:18:15;;;;;;;8.70;3.45;;;5.40;99.90;;;;;;4967542;28;20051;-89
2021/12/24 11:20:42;;;;;;;6.82;3.45;;;5.60;99.90;;;;;;4950938;28;20062;-89
2021/12/24 11:23:15;;;;;;;;;;;5.40;99.90;;;;;;4968187;28;20082;-89
2021/12/24 11:25:44;;;;;;;14.23;4.78;;;5.60;99.90;;;;;;4951436;28;19977;-88
2021/12/24 11:28:12;;;;;;;11.90;5.00;;;5.20;99.90;;;;;;4968808;28;20043;-89
2021/12/24 11:30:44;;;;;;;11.60;4.15;;;5.60;99.90;;;;;;4951312;28;20086;-89
2021/12/24 11:33:14;;;;;;;10.00;4.32;;;5.60;99.90;;;;;;4951601;28;20058;-89
2021/12/24 11:35:41;;;;;;;9.13;4.18;;;5.50;99.90;;;;;;4950710;28;20174;-88
2021/12/24 11:38:07;;;;;;;10.25;4.63;;;6.70;99.90;;;;;;4967797;28;20051;-85
2021/12/24 11:40:33;;;;;;;;;;;5.70;99.90;;;;;;4951564;28;20054;-86
2021/12/24 11:43:05;;;;;;;9.18;3.85;;;6.00;99.90;;;;;;4967926;28;19936;-86
2021/12/24 11:45:33;;;;;;;8.70;4.38;;;6.10;99.90;;;;;;4967754;28;20154;-86
2021/12/24 11:48:01;;;;;;;10.65;3.80;;;6.40;99.90;;;;;;4951152;28;20493;-86
2021/12/24 11:50:28;;;;;;;7.45;4.07;;;5.40;99.90;;;;;;4951694;28;20099;-85
2021/12/24 11:52:58;;;;;;;10.30;4.70;;;5.30;99.90;;;;;;4967602;28;20647;-86
2021/12/24 11:55:26;;;;;;;8.82;4.10;;;6.00;99.90;;;;;;4967971;28;20073;-85
2021/12/24 11:58:00;;;;;;;7.55;4.22;;;5.60;99.90;;;;;;4951484;28;20071;-85
2021/12/24 12:00:37;;;;;;;9.80;4.30;;;5.60;99.90;;;;;;4967507;28;20457;-85
2021/12/24 12:03:02;;;;;;;9.50;4.70;;;5.50;99.90;;;;;;4951863;28;20089;-85
2021/12/24 12:05:32;;;;;;;8.95;4.63;;;5.50;99.90;;;;;;4951011;28;20090;-84
2021/12/24 12:08:24;;;;;;;11.80;4.95;;;5.90;99.90;;;;;;4967408;28;20058;-85
2021/12/24 12:11:05;;;;;;;10.70;4.78;;;5.50;99.90;;;;;;4967813;28;20090;-86
2021/12/24 12:13:49;;;;;;;10.88;4.80;;;5.60;99.90;;;;;;4958118;28;20153;-88
2021/12/24 12:16:39;;;;;;;9.57;4.55;;;5.60;99.90;;;;;;4970554;28;20050;-88
2021/12/24 12:22:26;;;;;;;10.10;4.82;;;5.50;99.90;;;;;;4969117;28;20465;-89
2021/12/24 12:25:09;;;;;;;8.98;4.35;;;5.50;99.90;;;;;;4951985;28;20055;-88
2021/12/24 12:27:54;;;;;;;8.00;4.28;;;5.40;99.90;;;;;;4952031;28;20058;-88
2021/12/24 12:30:21;;;;;;;9.88;4.43;;;5.40;99.90;;;;;;4951827;28;20054;-88
2021/12/24 12:32:49;;;;;;;10.73;5.15;;;6.50;99.90;;;;;;4967685;28;20053;-88
2021/12/24 12:35:16;;;;;;;10.32;5.35;;;6.30;99.90;;;;;;4968748;28;20062;-88
2021/12/24 12:37:51;;;;;;;9.70;5.38;;;5.30;99.90;;;;;;4967155;28;20421;-88
2021/12/24 12:40:17;;;;;;;10.85;5.32;;;5.50;99.90;;;;;;4967820;28;20047;-88
2021/12/24 12:42:52;;;;;;;13.35;5.43;;;6.00;99.90;;;;;;4951710;28;20181;-88
2021/12/24 12:45:21;;;;;;;8.68;5.03;;;5.60;99.90;;;;;;4966708;28;20047;-88
2021/12/24 12:47:56;;;;;;;10.38;5.55;;;5.50;99.90;;;;;;4950258;28;20105;-88
2021/12/24 12:50:23;;;;;;;12.77;5.85;;;5.50;99.90;;;;;;4950861;28;20057;-87
2021/12/24 12:52:51;;;;;;;10.45;5.57;;;5.50;99.90;;;;;;4969268;28;20062;-88
2021/12/24 12:55:32;;;;;;;11.52;5.70;;;5.40;99.90;;;;;;4970760;28;20055;-88
2021/12/24 12:58:24;;;;;;;10.05;5.18;;;6.10;99.90;;;;;;4954617;28;20089;-88
2021/12/24 13:01:14;;;;;;;10.60;5.50;;;5.70;99.90;;;;;;4954659;28;20097;-87
2021/12/24 13:03:55;;;;;;;14.30;6.53;;;5.70;99.90;;;;;;4955065;28;20438;-88
2021/12/24 13:06:45;;;;;;;12.73;6.10;;;6.50;99.90;;;;;;4970461;28;20133;-88
2021/12/24 13:09:21;;;;;;;11.95;6.05;;;6.50;99.90;;;;;;4963816;28;20530;-87
2021/12/24 13:11:50;;;;;;;13.68;7.63;;;5.80;99.90;;;;;;4955396;28;20142;-88
2021/12/24 13:14:18;;;;;;;12.90;7.15;;;5.70;99.90;;;;;;4972225;28;20149;-88
2021/12/24 13:16:51;;;;;;;12.68;6.57;;;6.30;99.90;;;;;;4972597;28;20054;-87
2021/12/24 13:25:09;;;;;;;12.23;5.72;;;6.10;99.90;;;;;;4996350;28;20058;-89
2021/12/24 13:27:40;;;;;;;8.98;5.00;;;6.10;99.90;;;;;;4967356;28;20086;-86
2021/12/24 13:30:10;;;;;;;9.88;5.93;;;6.20;99.90;;;;;;4956287;28;20061;-85
2021/12/24 13:32:41;;;;;;;10.80;6.25;;;6.20;99.90;;;;;;4971252;28;20592;-85
2021/12/24 13:35:07;;;;;;;21.60;9.43;;;7.30;99.90;;;;;;4954767;28;20090;-86
2021/12/24 13:37:36;;;;;;;18.90;8.30;;;6.30;99.90;;;;;;4955640;28;20062;-85
2021/12/24 13:40:08;;;;;;;14.93;6.90;;;6.90;99.90;;;;;;4955177;28;20551;-85
2021/12/24 13:42:55;;;;;;;13.23;6.72;;;6.50;99.90;;;;;;4956641;28;20057;-86
2021/12/24 13:45:24;;;;;;;8.85;5.28;;;7.00;99.90;;;;;;4956086;28;20112;-88
2021/12/24 13:47:59;;;;;;;9.68;5.32;;;6.30;99.90;;;;;;4956546;28;20055;-89
2021/12/24 13:56:02;;;;;;;13.35;6.40;;;6.80;99.90;;;;;;4971644;28;20058;-88
2021/12/24 13:58:28;;;;;;;8.40;5.60;;;6.20;99.90;;;;;;4954084;28;20116;-87
2021/12/24 14:00:57;;;;;;;13.63;8.18;;;7.20;99.90;;;;;;4972511;28;20452;-87
2021/12/24 14:03:26;;;;;;;12.38;7.20;;;6.80;99.90;;;;;;4955337;28;20050;-88
2021/12/24 14:05:55;;;;;;;14.77;7.25;;;7.10;99.90;;;;;;4954482;28;20046;-88
2021/12/24 14:08:27;;;;;;;12.93;7.07;;;5.90;99.90;;;;;;4955378;28;20595;-88
2021/12/24 14:11:06;;;;;;;9.15;5.43;;;5.80;99.90;;;;;;4971582;28;20049;-88
2021/12/24 14:13:40;;;;;;;9.95;5.78;;;5.80;99.90;;;;;;4955813;28;20092;-88
2021/12/24 14:16:30;;;;;;;10.05;5.07;;;6.40;99.90;;;;;;4954226;28;20050;-89
2021/12/24 14:19:17;;;;;;;9.82;5.90;;;5.80;99.90;;;;;;4955089;28;20090;-88
2021/12/24 14:21:45;;;;;;;10.38;5.70;;;5.70;99.90;;;;;;4956073;28;20501;-89
2021/12/24 14:24:19;;;;;;;12.85;6.82;;;5.90;99.90;;;;;;4956211;28;20105;-89
2021/12/24 14:26:59;;;;;;;11.50;6.15;;;5.80;99.90;;;;;;4957221;28;20046;-89
2021/12/24 14:29:43;;;;;;;11.70;6.05;;;5.80;99.90;;;;;;4955813;28;20085;-88
2021/12/24 14:32:17;;;;;;;12.90;7.03;;;5.80;99.90;;;;;;4956219;28;20089;-88
2021/12/24 14:34:51;;;;;;;11.55;7.07;;;5.80;99.90;;;;;;4956107;28;20146;-89
2021/12/24 14:37:17;;;;;;;13.25;7.53;;;5.80;99.90;;;;;;4956387;28;20078;-88
2021/12/24 14:39:52;;;;;;;13.70;7.25;;;6.20;99.90;;;;;;4956399;28;20054;-87
2021/12/24 14:42:18;;;;;;;19.13;9.82;;;5.70;99.90;;;;;;4956333;28;20058;-88
2021/12/24 14:44:45;;;;;;;13.45;7.78;;;6.70;99.90;;;;;;4955933;28;20155;-88
2021/12/24 14:47:12;;;;;;;24.30;13.13;;;4.90;99.90;;;;;;4955780;28;20077;-88
2021/12/24 14:49:42;;;;;;;16.67;9.88;;;5.70;99.90;;;;;;4956122;28;20129;-85
2021/12/24 14:52:25;;;;;;;17.88;9.05;;;6.10;99.90;;;;;;4955825;28;20077;-88
2021/12/24 14:55:11;;;;;;;14.35;6.20;;;5.60;99.90;;;;;;4955783;28;20082;-86
2021/12/24 14:58:03;;;;;;;13.68;7.45;;;5.70;99.90;;;;;;4956717;28;20481;-87
2021/12/24 15:00:43;;;;;;;12.93;6.95;;;6.40;99.90;;;;;;4953199;28;20058;-87
2021/12/24 15:03:13;;;;;;;12.55;7.10;;;6.90;99.90;;;;;;4955893;28;20078;-87
2021/12/24 15:05:48;;;;;;;534.97;322.35;;;6.10;99.90;;;;;;4955878;28;20042;-88
2021/12/24 15:08:22;;;;;;;224.18;130.13;;;5.30;99.90;;;;;;4956332;28;20054;-87